Time;durP1;ratioP1;P1;durP2;ratioP2;P2;SDS_P1;SDS_P2;PMS_P1;PMS_P2;Temp;Humidity;BMP_temperature;BMP_pressure;BME280_temperature;BME280_humidity;BME280_pressure;Samples;Min_cycle;Max_cycle;Signal;HPM_P1;HPM_P2
2022/05/25 00:01:11;;;;;;;;;;;;;;;11.22;75.07;100090.34;6250986;22;1900;-90
2022/05/25 00:03:36;;;;;;;;;;;;;;;10.69;75.54;100095.09;6251032;22;961;-90
2022/05/25 00:06:04;;;;;;;;;;;;;;;11.25;74.04;100098.78;6251499;22;1274;-90
2022/05/25 00:08:30;;;;;;;;;;;;;;;10.75;75.57;100102.16;6278493;22;845;-90
2022/05/25 00:10:55;;;;;;;;;;;;;;;10.74;75.57;100117.75;6251504;22;1255;-90
2022/05/25 00:13:20;;;;;;;;;;;;;;;11.00;74.67;100108.13;6251601;22;1253;-90
2022/05/25 00:15:46;;;;;;;;;;;;;;;11.42;73.15;100106.47;6251642;22;1199;-90
2022/05/25 00:18:11;;;;;;;;;;;;;;;11.27;73.08;100112.19;6251872;22;1424;-90
2022/05/25 00:20:37;;;;;;;;;;;;;;;11.81;71.95;100110.91;6252132;22;1930;-88
2022/05/25 00:23:02;;;;;;;;;;;;;;;11.11;73.77;100114.31;6279017;22;806;-89
2022/05/25 00:25:33;;;;;;;;;;;;;;;10.87;74.63;100125.28;6279886;22;856;-90
2022/05/25 00:27:58;;;;;;;;;;;;;;;10.86;75.52;100120.09;6252000;22;1415;-90
2022/05/25 00:30:25;;;;;;;;;;;;;;;11.00;73.87;100119.09;6252879;22;1236;-89
2022/05/25 00:32:50;;;;;;;;;;;;;;;11.09;72.79;100127.47;6280246;22;746;-90
2022/05/25 00:35:17;;;;;;;;;;;;;;;11.59;71.88;100115.00;6252710;22;1302;-90
2022/05/25 00:37:43;;;;;;;;;;;;;;;11.64;71.83;100123.19;6251324;22;1298;-90
2022/05/25 00:40:11;;;;;;;;;;;;;;;11.25;72.46;100125.34;6287246;22;1878;-90
2022/05/25 00:42:37;;;;;;;;;;;;;;;10.79;74.91;100117.72;6254963;22;805;-90
2022/05/25 00:45:04;;;;;;;;;;;;;;;11.26;73.10;100119.59;6265538;22;1330;-89
2022/05/25 00:47:29;;;;;;;;;;;;;;;11.34;72.18;100118.09;6290123;22;1123;-87
2022/05/25 00:49:55;;;;;;;;;;;;;;;11.61;71.83;100107.31;6259888;22;1190;-89
2022/05/25 00:52:21;;;;;;;;;;;;;;;11.73;70.98;100104.13;6251379;22;1416;-90
2022/05/25 00:54:48;;;;;;;;;;;;;;;11.59;71.77;100114.19;6250206;22;1307;-88
2022/05/25 00:57:16;;;;;;;;;;;;;;;11.59;71.98;100120.50;6277520;22;991;-89
2022/05/25 01:00:00;;;;;;;;;;;;;;;11.14;73.00;100119.22;6250274;22;1944;-90
2022/05/25 01:02:27;;;;;;;;;;;;;;;11.55;71.72;100116.72;6277778;22;813;-89
2022/05/25 01:04:52;;;;;;;;;;;;;;;11.20;72.52;100111.72;6250796;22;1268;-91
2022/05/25 01:07:35;;;;;;;;;;;;;;;11.42;72.40;100122.09;6277598;22;675;-91
2022/05/25 01:10:03;;;;;;;;;;;;;;;10.95;74.20;100110.13;6252635;22;1230;-90
2022/05/25 01:12:51;;;;;;;;;;;;;;;10.70;75.24;100113.97;6252920;22;1231;-89
2022/05/25 01:15:24;;;;;;;;;;;;;;;10.85;74.18;100112.97;6279083;22;1432;-88
2022/05/25 01:17:58;;;;;;;;;;;;;;;10.65;74.75;100115.94;6252583;22;1346;-89
2022/05/25 01:20:24;;;;;;;;;;;;;;;10.93;74.42;100113.16;6279730;22;1876;-88
2022/05/25 01:22:49;;;;;;;;;;;;;;;11.13;73.12;100122.25;6279385;22;1059;-90
2022/05/25 01:25:33;;;;;;;;;;;;;;;10.53;75.74;100122.66;6252695;22;1236;-90
2022/05/25 01:28:04;;;;;;;;;;;;;;;10.72;74.54;100124.66;6278587;22;1198;-87
2022/05/25 01:30:33;;;;;;;;;;;;;;;10.29;74.86;100126.44;6279746;22;1233;-91
2022/05/25 01:33:10;;;;;;;;;;;;;;;10.04;76.87;100130.97;6279585;22;825;-89
2022/05/25 01:35:53;;;;;;;;;;;;;;;10.00;76.64;100140.88;6252419;22;1207;-91
2022/05/25 01:38:28;;;;;;;;;;;;;;;9.99;76.60;100143.88;6251978;22;1333;-88
2022/05/25 01:40:53;;;;;;;;;;;;;;;10.60;74.38;100135.97;6279095;22;1918;-90
2022/05/25 01:43:24;;;;;;;;;;;;;;;10.58;74.64;100146.41;6252109;22;872;-89
2022/05/25 01:45:52;;;;;;;;;;;;;;;10.81;72.89;100148.31;6252151;22;1195;-90
2022/05/25 01:48:19;;;;;;;;;;;;;;;10.42;73.98;100150.38;6279185;22;1000;-90
2022/05/25 01:50:50;;;;;;;;;;;;;;;10.28;74.12;100146.69;6252368;22;1279;-90
2022/05/25 01:53:17;;;;;;;;;;;;;;;9.88;75.18;100156.78;6278181;22;1310;-91
2022/05/25 01:55:50;;;;;;;;;;;;;;;9.77;76.32;100155.25;6252609;22;1156;-89
2022/05/25 01:58:18;;;;;;;;;;;;;;;10.19;73.75;100166.47;6279137;22;809;-90
2022/05/25 02:00:46;;;;;;;;;;;;;;;9.67;76.49;100160.78;6279113;22;1892;-90
2022/05/25 02:06:15;;;;;;;;;;;;;;;10.22;74.35;100168.59;6279987;22;660;-89
2022/05/25 02:08:43;;;;;;;;;;;;;;;9.60;76.03;100171.22;6278172;22;1140;-90
2022/05/25 02:11:14;;;;;;;;;;;;;;;9.72;76.91;100172.50;6252054;22;1269;-91
2022/05/25 02:13:43;;;;;;;;;;;;;;;10.35;74.79;100169.88;6251371;22;1163;-92
2022/05/25 02:16:25;;;;;;;;;;;;;;;10.49;73.44;100164.53;6279094;22;933;-90
2022/05/25 02:19:09;;;;;;;;;;;;;;;10.48;73.51;100168.38;6251755;22;1261;-90
2022/05/25 02:21:41;;;;;;;;;;;;;;;10.49;74.28;100175.47;6276691;22;1365;-90
2022/05/25 02:24:17;;;;;;;;;;;;;;;10.42;73.89;100178.56;6278807;22;1012;-89
2022/05/25 02:26:52;;;;;;;;;;;;;;;10.10;74.83;100178.25;6277028;22;1348;-89
2022/05/25 02:29:21;;;;;;;;;;;;;;;9.47;77.85;100175.38;6251260;22;1284;-90
2022/05/25 02:31:51;;;;;;;;;;;;;;;10.20;75.13;100175.47;6278475;22;991;-90
2022/05/25 02:34:17;;;;;;;;;;;;;;;10.65;73.99;100176.16;6278572;22;841;-89
2022/05/25 02:36:43;;;;;;;;;;;;;;;10.78;72.35;100175.50;6251612;22;1178;-90
2022/05/25 02:39:10;;;;;;;;;;;;;;;10.82;72.06;100173.78;6251295;22;1960;-89
2022/05/25 02:41:42;;;;;;;;;;;;;;;10.18;73.67;100173.03;6251170;22;1325;-90
2022/05/25 02:44:08;;;;;;;;;;;;;;;9.73;76.38;100176.03;6278454;22;850;-89
2022/05/25 02:46:33;;;;;;;;;;;;;;;10.12;74.23;100182.31;6250026;22;1143;-90
2022/05/25 02:48:58;;;;;;;;;;;;;;;10.13;73.76;100180.41;6278335;22;928;-88
2022/05/25 03:40:25;;;;;;;;;;;;;;;9.15;76.28;100214.00;6217263;23;1928;-90
2022/05/25 03:42:50;;;;;;;;;;;;;;;9.17;75.65;100217.28;6190816;23;1159;-90
2022/05/25 03:45:15;;;;;;;;;;;;;;;9.67;73.79;100218.16;6190080;23;1343;-89
2022/05/25 03:47:41;;;;;;;;;;;;;;;9.43;74.10;100213.38;6217072;23;992;-90
2022/05/25 03:50:06;;;;;;;;;;;;;;;9.18;75.60;100220.84;6190782;23;1276;-90
2022/05/25 03:52:32;;;;;;;;;;;;;;;8.93;76.45;100216.28;6190636;23;1446;-89
2022/05/25 03:54:57;;;;;;;;;;;;;;;9.32;75.16;100216.41;6190598;23;1286;-89
2022/05/25 03:57:22;;;;;;;;;;;;;;;9.40;75.03;100211.19;6190478;23;1188;-89
2022/05/25 03:59:47;;;;;;;;;;;;;;;9.49;74.52;100222.34;6190162;23;1892;-90
2022/05/25 04:02:13;;;;;;;;;;;;;;;9.47;74.11;100217.16;6190498;23;1186;-90
2022/05/25 04:04:38;;;;;;;;;;;;;;;9.16;76.16;100218.38;6190013;23;1278;-89
2022/05/25 04:07:03;;;;;;;;;;;;;;;9.15;76.94;100214.00;6190236;23;1180;-89
2022/05/25 04:09:29;;;;;;;;;;;;;;;9.28;76.35;100216.13;6216998;23;1000;-90
2022/05/25 04:11:54;;;;;;;;;;;;;;;9.07;77.60;100220.03;6190305;23;1326;-89
2022/05/25 04:14:19;;;;;;;;;;;;;;;9.36;77.34;100220.19;6190693;23;1044;-91
2022/05/25 04:16:45;;;;;;;;;;;;;;;9.31;76.16;100220.22;6190778;23;1208;-89
2022/05/25 04:19:10;;;;;;;;;;;;;;;9.39;76.55;100227.84;6190455;23;1936;-91
2022/05/25 04:21:35;;;;;;;;;;;;;;;9.27;75.94;100228.16;6216901;23;1246;-91
2022/05/25 04:24:01;;;;;;;;;;;;;;;9.56;75.13;100232.97;6190768;23;1247;-91
2022/05/25 04:26:28;;;;;;;;;;;;;;;9.41;76.34;100233.88;6217053;23;806;-91
2022/05/25 04:28:53;;;;;;;;;;;;;;;9.36;75.99;100237.41;6190408;23;1258;-91
2022/05/25 04:31:18;;;;;;;;;;;;;;;9.11;77.02;100232.03;6190593;23;1365;-90
2022/05/25 04:33:43;;;;;;;;;;;;;;;9.27;76.96;100233.63;6190230;23;988;-91
2022/05/25 04:36:08;;;;;;;;;;;;;;;9.69;75.08;100240.56;6190259;23;1005;-91
2022/05/25 04:38:34;;;;;;;;;;;;;;;9.37;75.94;100238.22;6192411;23;1180;-91
2022/05/25 04:41:01;;;;;;;;;;;;;;;8.99;78.24;100239.72;6215868;23;1939;-91
2022/05/25 04:43:26;;;;;;;;;;;;;;;9.04;78.50;100247.88;6215888;23;1167;-91
2022/05/25 04:45:52;;;;;;;;;;;;;;;8.92;79.49;100253.66;6217302;23;820;-92
2022/05/25 04:48:21;;;;;;;;;;;;;;;9.21;79.38;100259.31;6215610;23;1297;-91
2022/05/25 04:50:46;;;;;;;;;;;;;;;9.38;79.59;100250.78;6215519;23;1314;-92
2022/05/25 04:53:13;;;;;;;;;;;;;;;9.79;77.75;100254.16;6215649;23;1366;-92
2022/05/25 04:58:27;;;;;;;;;;;;;;;10.05;76.58;100260.31;6217347;23;662;-92
2022/05/25 05:00:53;;;;;;;;;;;;;;;10.17;76.38;100261.66;6215951;23;1916;-91
2022/05/25 05:03:19;;;;;;;;;;;;;;;10.61;75.61;100258.84;6216527;23;1290;-91
2022/05/25 05:05:45;;;;;;;;;;;;;;;11.27;73.80;100260.94;6217642;23;1286;-91
2022/05/25 05:08:10;;;;;;;;;;;;;;;10.90;75.46;100258.84;6219882;23;1291;-91
2022/05/25 05:10:36;;;;;;;;;;;;;;;10.74;76.18;100267.50;6222299;23;1290;-91
2022/05/25 05:13:04;;;;;;;;;;;;;;;10.67;76.92;100267.00;6219181;23;1428;-91
2022/05/25 05:15:33;;;;;;;;;;;;;;;10.51;78.74;100269.06;6216341;23;1345;-91
2022/05/25 05:17:59;;;;;;;;;;;;;;;10.89;77.12;100276.38;6215607;23;1284;-91
2022/05/25 05:20:24;;;;;;;;;;;;;;;11.34;76.91;100275.13;6215283;23;1922;-91
2022/05/25 05:22:49;;;;;;;;;;;;;;;11.20;76.22;100281.59;6215939;23;962;-92
2022/05/25 05:25:14;;;;;;;;;;;;;;;11.12;76.38;100274.81;6215756;23;1330;-91
2022/05/25 05:27:39;;;;;;;;;;;;;;;11.02;78.85;100277.66;6215428;23;1163;-92
2022/05/25 05:30:05;;;;;;;;;;;;;;;11.15;77.96;100276.13;6215717;23;1200;-91
2022/05/25 05:32:31;;;;;;;;;;;;;;;11.50;77.64;100285.91;6215585;23;1385;-92
2022/05/25 05:34:56;;;;;;;;;;;;;;;12.09;75.63;100278.03;6215457;23;1254;-91
2022/05/25 05:37:26;;;;;;;;;;;;;;;12.18;75.71;100280.13;6215641;23;1309;-91
2022/05/25 05:39:54;;;;;;;;;;;;;;;11.51;78.97;100284.78;6216877;23;1893;-92
2022/05/25 05:42:20;;;;;;;;;;;;;;;11.85;78.05;100285.50;6218511;23;754;-90
2022/05/25 05:44:51;;;;;;;;;;;;;;;12.23;76.76;100283.63;6216750;23;1309;-92
2022/05/25 05:47:19;;;;;;;;;;;;;;;12.65;76.32;100273.63;6216112;23;1160;-91
2022/05/25 05:49:44;;;;;;;;;;;;;;;12.48;75.97;100285.16;6215756;23;1192;-92
2022/05/25 05:52:10;;;;;;;;;;;;;;;12.36;76.83;100291.09;6215883;23;1291;-90
2022/05/25 05:54:36;;;;;;;;;;;;;;;12.66;76.77;100291.75;6215531;23;1148;-92
2022/05/25 05:57:01;;;;;;;;;;;;;;;12.93;75.17;100291.03;6218326;23;1348;-91
2022/05/25 05:59:26;;;;;;;;;;;;;;;13.17;74.07;100287.03;6218745;23;1905;-92
2022/05/25 06:01:53;;;;;;;;;;;;;;;13.14;73.50;100292.31;6217679;23;1274;-92
2022/05/25 06:04:18;;;;;;;;;;;;;;;13.02;73.11;100291.94;6217259;23;1313;-91
2022/05/25 06:06:43;;;;;;;;;;;;;;;13.16;72.93;100292.84;6217882;23;1325;-92
2022/05/25 06:09:08;;;;;;;;;;;;;;;13.22;72.65;100295.19;6218279;23;941;-92
2022/05/25 06:11:37;;;;;;;;;;;;;;;13.15;74.05;100288.44;6217949;23;1266;-91
2022/05/25 06:14:02;;;;;;;;;;;;;;;13.13;73.91;100294.25;6217916;23;1477;-92
2022/05/25 06:19:33;;;;;;;;;;;;;;;13.33;74.29;100295.00;6218678;23;1901;-91
2022/05/25 06:22:12;;;;;;;;;;;;;;;13.17;73.87;100297.22;6218020;23;1270;-92
2022/05/25 06:24:39;;;;;;;;;;;;;;;13.22;73.65;100303.44;6217702;23;1261;-91
2022/05/25 06:27:08;;;;;;;;;;;;;;;13.40;73.69;100300.91;6217424;23;1180;-91
2022/05/25 06:29:33;;;;;;;;;;;;;;;13.43;73.79;100301.13;6217044;23;1326;-92
2022/05/25 06:31:58;;;;;;;;;;;;;;;13.43;74.09;100295.63;6216825;23;1257;-92
2022/05/25 06:34:23;;;;;;;;;;;;;;;13.52;73.98;100293.81;6217020;23;1049;-91
2022/05/25 06:36:48;;;;;;;;;;;;;;;13.61;72.59;100293.88;6216511;23;804;-91
2022/05/25 06:39:14;;;;;;;;;;;;;;;13.63;73.08;100299.88;6219751;23;1913;-90
2022/05/25 06:41:39;;;;;;;;;;;;;;;13.85;72.00;100300.00;6235491;22;1279;-89
2022/05/25 06:44:04;;;;;;;;;;;;;;;13.60;72.15;100301.34;6216567;23;1343;-91
2022/05/25 06:46:29;;;;;;;;;;;;;;;13.69;72.01;100304.19;6216305;23;944;-91
2022/05/25 06:48:57;;;;;;;;;;;;;;;14.07;72.15;100302.00;6216250;23;1294;-91
2022/05/25 06:51:23;;;;;;;;;;;;;;;13.79;71.54;100303.97;6217846;23;1186;-91
2022/05/25 06:53:49;;;;;;;;;;;;;;;14.08;71.82;100300.06;6217770;23;995;-91
2022/05/25 06:56:16;;;;;;;;;;;;;;;14.31;70.62;100294.28;6216089;23;1310;-91
2022/05/25 06:58:41;;;;;;;;;;;;;;;14.12;70.79;100304.63;6218468;23;1372;-92
2022/05/25 07:01:07;;;;;;;;;;;;;;;14.00;72.83;100307.13;6217745;23;1889;-90
2022/05/25 07:03:32;;;;;;;;;;;;;;;13.92;71.13;100311.41;6221319;23;1052;-91
2022/05/25 07:05:57;;;;;;;;;;;;;;;14.15;70.11;100306.78;6216701;23;1302;-91
2022/05/25 07:08:23;;;;;;;;;;;;;;;14.21;70.47;100312.97;6216266;23;1397;-91
2022/05/25 07:10:48;;;;;;;;;;;;;;;14.33;70.76;100311.31;6216739;23;1187;-91
2022/05/25 07:13:14;;;;;;;;;;;;;;;14.46;70.33;100315.19;6215556;23;1016;-91
2022/05/25 07:15:39;;;;;;;;;;;;;;;14.62;70.14;100316.47;6216284;23;1196;-91
2022/05/25 19:55:12;;;;;;;;;;;;;;;17.53;48.67;100409.94;6216649;23;1299;-92
2022/05/25 19:57:37;;;;;;;;;;;;;;;17.44;48.33;100414.72;6217179;23;1096;-92
2022/05/25 20:00:05;;;;;;;;;;;;;;;17.89;50.20;100415.09;6190988;23;1936;-91
2022/05/25 20:02:30;;;;;;;;;;;;;;;17.67;49.37;100418.94;6190554;23;1188;-90
2022/05/25 20:04:56;;;;;;;;;;;;;;;17.79;48.12;100421.81;6190885;23;957;-91
2022/05/25 20:07:21;;;;;;;;;;;;;;;17.10;52.53;100426.63;6191766;23;1411;-90
2022/05/25 20:09:46;;;;;;;;;;;;;;;16.79;52.25;100426.75;6191665;23;1195;-91
2022/05/25 20:12:11;;;;;;;;;;;;;;;16.85;52.81;100431.81;6192892;23;953;-90
2022/05/25 20:14:37;;;;;;;;;;;;;;;16.69;56.33;100427.88;6190048;23;1000;-90
2022/05/25 20:17:02;;;;;;;;;;;;;;;16.86;52.60;100436.19;6190408;23;1450;-91
2022/05/25 20:19:27;;;;;;;;;;;;;;;16.80;55.55;100445.78;6190810;23;1262;-91
2022/05/25 20:21:56;;;;;;;;;;;;;;;16.96;55.00;100435.06;6189975;23;1885;-90
2022/05/25 20:24:21;;;;;;;;;;;;;;;16.60;57.42;100441.66;6189727;23;1262;-91
2022/05/25 20:27:20;;;;;;;;;;;;;;;16.91;56.39;100441.59;6190085;23;862;-91
2022/05/25 20:29:59;;;;;;;;;;;;;;;16.81;54.97;100441.09;6215450;23;1241;-91
2022/05/25 20:32:25;;;;;;;;;;;;;;;16.68;56.67;100440.06;6190735;23;1385;-91
2022/05/25 20:34:51;;;;;;;;;;;;;;;16.51;56.91;100440.81;6190319;23;1217;-90
2022/05/25 20:37:16;;;;;;;;;;;;;;;17.00;52.33;100433.31;6190047;23;1350;-90
2022/05/25 20:39:42;;;;;;;;;;;;;;;17.11;54.75;100445.63;6189795;23;1914;-90
2022/05/25 20:42:07;;;;;;;;;;;;;;;16.89;52.46;100452.16;6189808;23;1264;-91
2022/05/25 20:44:32;;;;;;;;;;;;;;;17.27;47.00;100441.25;6190202;23;1443;-91
2022/05/25 20:46:58;;;;;;;;;;;;;;;17.27;48.14;100443.19;6190318;23;1389;-92
2022/05/25 20:49:23;;;;;;;;;;;;;;;17.28;47.86;100450.34;6190335;23;1314;-91
2022/05/25 20:51:48;;;;;;;;;;;;;;;17.45;49.23;100449.53;6189662;23;1254;-91
2022/05/25 20:54:14;;;;;;;;;;;;;;;17.69;51.52;100447.88;6201278;23;1210;-91
2022/05/25 20:56:39;;;;;;;;;;;;;;;17.60;49.58;100449.84;6215600;23;1351;-91
2022/05/25 20:59:04;;;;;;;;;;;;;;;17.32;48.33;100448.56;6215498;23;1313;-90
2022/05/25 21:01:30;;;;;;;;;;;;;;;17.24;46.22;100449.41;6216548;23;1890;-90
2022/05/25 21:03:55;;;;;;;;;;;;;;;17.33;45.73;100447.44;6215102;23;1265;-91
2022/05/25 21:06:20;;;;;;;;;;;;;;;17.19;50.56;100458.66;6215323;23;948;-91
2022/05/25 21:08:45;;;;;;;;;;;;;;;17.50;46.85;100455.72;6215074;23;1219;-91
2022/05/25 21:11:17;;;;;;;;;;;;;;;17.49;47.45;100453.28;6213222;23;1253;-91
2022/05/25 21:13:43;;;;;;;;;;;;;;;17.33;47.42;100459.31;6215441;23;1174;-90
2022/05/25 21:16:08;;;;;;;;;;;;;;;17.49;45.55;100467.13;6215772;23;1451;-91
2022/05/25 21:18:33;;;;;;;;;;;;;;;17.62;45.37;100463.38;6215231;23;1282;-91
2022/05/25 21:20:59;;;;;;;;;;;;;;;17.74;46.66;100463.53;6215078;23;1869;-91
2022/05/25 21:23:24;;;;;;;;;;;;;;;17.62;46.04;100466.13;6215007;23;1307;-91
2022/05/25 21:25:49;;;;;;;;;;;;;;;17.42;46.81;100466.81;6215530;23;1249;-91
2022/05/25 21:28:16;;;;;;;;;;;;;;;17.37;46.42;100460.28;6217309;23;1181;-91
2022/05/25 21:33:28;;;;;;;;;;;;;;;17.56;46.08;100467.44;6225780;22;1939;-89
2022/05/25 21:35:54;;;;;;;;;;;;;;;17.60;46.98;100460.94;6220476;23;1317;-88
2022/05/25 21:38:20;;;;;;;;;;;;;;;17.59;47.58;100455.72;6221304;23;1215;-88
2022/05/25 21:40:45;;;;;;;;;;;;;;;17.49;47.22;100458.81;6220838;23;1893;-89
2022/05/25 21:43:10;;;;;;;;;;;;;;;17.59;46.92;100459.28;6221252;23;1226;-88
2022/05/25 21:45:36;;;;;;;;;;;;;;;17.39;47.02;100454.44;6248040;23;888;-87
2022/05/25 21:50:45;;;;;;;;;;;;;;;17.09;47.35;100459.00;6253956;23;584;-89
2022/05/25 21:53:11;;;;;;;;;;;;;;;17.16;47.93;100458.50;6252843;23;1199;-88
2022/05/25 21:55:36;;;;;;;;;;;;;;;17.30;47.74;100457.19;6222548;23;1215;-88
2022/05/25 21:58:01;;;;;;;;;;;;;;;17.33;45.86;100458.50;6248135;23;1035;-89
2022/05/25 22:00:27;;;;;;;;;;;;;;;17.07;48.31;100472.34;6221195;23;1940;-88
2022/05/25 22:02:52;;;;;;;;;;;;;;;16.95;48.27;100467.44;6221484;23;1278;-88
2022/05/25 22:05:18;;;;;;;;;;;;;;;17.45;46.52;100455.88;6221392;23;1223;-88
2022/05/25 22:07:43;;;;;;;;;;;;;;;17.36;47.23;100463.38;6221273;23;1388;-89
2022/05/25 22:10:08;;;;;;;;;;;;;;;17.12;48.52;100474.94;6221483;23;932;-89
2022/05/25 22:12:33;;;;;;;;;;;;;;;17.30;46.79;100473.78;6221338;23;1282;-88
2022/05/25 22:14:59;;;;;;;;;;;;;;;17.34;47.61;100471.22;6247730;23;1188;-89
2022/05/25 22:17:24;;;;;;;;;;;;;;;17.48;47.86;100476.56;6221114;23;854;-87
2022/05/25 22:19:49;;;;;;;;;;;;;;;17.29;47.15;100468.59;6221213;23;1893;-89
2022/05/25 22:22:14;;;;;;;;;;;;;;;17.29;47.50;100474.94;6221394;23;1019;-88
2022/05/25 22:24:40;;;;;;;;;;;;;;;17.15;47.90;100479.00;6221035;23;1208;-89
2022/05/25 22:27:06;;;;;;;;;;;;;;;17.03;48.76;100480.47;6221220;23;1176;-89
2022/05/25 22:29:32;;;;;;;;;;;;;;;16.85;48.96;100478.81;6219725;23;1155;-89
2022/05/25 22:31:59;;;;;;;;;;;;;;;16.53;49.81;100479.19;6221929;23;1179;-89
2022/05/25 22:34:24;;;;;;;;;;;;;;;16.56;50.09;100492.38;6234985;23;1344;-88
2022/05/25 22:36:49;;;;;;;;;;;;;;;16.60;50.03;100496.94;6247756;22;908;-88
2022/05/25 22:39:15;;;;;;;;;;;;;;;16.43;50.65;100496.06;6248133;23;1035;-88
2022/05/25 22:41:40;;;;;;;;;;;;;;;16.46;51.60;100499.00;6246354;23;1893;-89
2022/05/25 22:44:06;;;;;;;;;;;;;;;16.54;51.20;100491.88;6246521;23;1205;-88
2022/05/25 22:46:31;;;;;;;;;;;;;;;16.39;50.92;100475.75;6248354;22;896;-89
2022/05/25 22:48:56;;;;;;;;;;;;;;;16.57;51.52;100482.94;6247949;23;964;-89
2022/05/25 22:51:21;;;;;;;;;;;;;;;16.91;50.36;100474.78;6246373;23;1076;-88
2022/05/25 22:53:47;;;;;;;;;;;;;;;17.18;49.93;100479.16;6247352;22;1196;-87
2022/05/25 22:56:13;;;;;;;;;;;;;;;16.85;49.59;100475.22;6247257;23;821;-88
2022/05/25 22:58:38;;;;;;;;;;;;;;;16.88;50.75;100475.41;6247220;22;841;-88
2022/05/25 23:01:03;;;;;;;;;;;;;;;16.80;49.62;100473.44;6245711;23;1888;-87
2022/05/25 23:03:28;;;;;;;;;;;;;;;16.99;49.78;100471.19;6245881;23;1195;-88
2022/05/25 23:05:54;;;;;;;;;;;;;;;16.68;51.10;100467.72;6246165;23;1202;-88
2022/05/25 23:08:19;;;;;;;;;;;;;;;16.76;50.20;100474.41;6246509;23;964;-88
2022/05/25 23:10:54;;;;;;;;;;;;;;;16.79;50.39;100471.00;6246050;23;964;-88
2022/05/25 23:13:20;;;;;;;;;;;;;;;16.84;49.74;100476.38;6245261;23;1282;-88
2022/05/25 23:15:46;;;;;;;;;;;;;;;16.94;51.03;100479.63;6245854;23;1147;-88
2022/05/25 23:18:11;;;;;;;;;;;;;;;16.84;51.24;100477.16;6246311;23;1186;-88
2022/05/25 23:20:36;;;;;;;;;;;;;;;16.96;50.42;100476.53;6247538;23;1896;-89
2022/05/25 23:23:02;;;;;;;;;;;;;;;16.92;51.08;100487.47;6245416;23;1202;-88
2022/05/25 23:25:27;;;;;;;;;;;;;;;16.74;50.59;100474.75;6246014;23;1233;-88
2022/05/25 23:29:19;;;;;;;;;;;;;;;16.78;51.06;100484.00;6245510;23;1190;-88
2022/05/25 23:30:40;;;;;;;;;;;;;;;16.54;50.96;100481.63;6247143;23;1164;-88
2022/05/25 23:33:07;;;;;;;;;;;;;;;16.53;51.18;100480.00;6246961;22;1187;-89
2022/05/25 23:35:32;;;;;;;;;;;;;;;16.46;52.34;100484.38;6220569;23;1207;-88
2022/05/25 23:37:57;;;;;;;;;;;;;;;16.44;51.78;100481.09;6220507;23;1301;-88
2022/05/25 23:43:45;;;;;;;;;;;;;;;16.70;51.39;100478.44;6247120;23;1884;-89
2022/05/25 23:45:51;;;;;;;;;;;;;;;16.60;51.98;100487.81;6247152;23;1041;-89
2022/05/25 23:48:17;;;;;;;;;;;;;;;16.48;51.63;100493.97;6220198;23;1249;-88
2022/05/25 23:50:42;;;;;;;;;;;;;;;16.67;52.73;100484.66;6220443;23;865;-88
2022/05/25 23:53:07;;;;;;;;;;;;;;;16.56;52.42;100489.63;6220065;23;1184;-87
2022/05/25 23:55:32;;;;;;;;;;;;;;;16.31;52.45;100477.34;6220064;23;1280;-87
2022/05/25 23:57:57;;;;;;;;;;;;;;;15.99;54.26;100486.75;6220219;23;964;-87
